Time;durP1;ratioP1;P1;durP2;ratioP2;P2;SDS_P1;SDS_P2;PMS_P1;PMS_P2;Temp;Humidity;BMP_temperature;BMP_pressure;BME280_temperature;BME280_humidity;BME280_pressure;Samples;Min_cycle;Max_cycle;Signal;HPM_P1;HPM_P2
2022/08/30 00:03:13;;;;;;;4.88;4.47;;;15.90;99.90;;;;;;5003114;28;20041;-30
2022/08/30 00:05:43;;;;;;;5.07;4.65;;;15.90;99.90;;;;;;4991883;28;20048;-30
2022/08/30 00:08:09;;;;;;;5.78;4.40;;;15.90;99.90;;;;;;5002563;28;20034;-30
2022/08/30 00:10:36;;;;;;;6.40;5.55;;;15.90;99.90;;;;;;4991530;28;20041;-32
2022/08/30 00:13:04;;;;;;;5.80;5.22;;;15.90;99.90;;;;;;5001990;28;20038;-30
2022/08/30 00:15:30;;;;;;;4.90;4.38;;;15.90;99.90;;;;;;5000933;28;20075;-30
2022/08/30 00:17:56;;;;;;;6.15;4.60;;;15.90;99.90;;;;;;5000434;28;20490;-30
2022/08/30 00:20:26;;;;;;;5.22;4.72;;;15.90;99.90;;;;;;5011311;28;20033;-30
2022/08/30 00:22:52;;;;;;;5.40;4.82;;;15.90;99.90;;;;;;4994453;28;20033;-30
2022/08/30 00:25:18;;;;;;;5.40;4.95;;;15.90;99.90;;;;;;5009362;28;20079;-30
2022/08/30 00:27:44;;;;;;;5.45;4.95;;;15.90;99.90;;;;;;4997191;28;20038;-30
2022/08/30 00:30:13;;;;;;;5.38;4.63;;;15.80;99.90;;;;;;4998895;28;20121;-30
2022/08/30 00:32:39;;;;;;;6.13;4.75;;;15.80;99.90;;;;;;5001719;28;20060;-27
2022/08/30 00:35:07;;;;;;;5.05;4.55;;;15.80;99.90;;;;;;4991816;28;20432;-28
2022/08/30 00:37:33;;;;;;;5.60;5.10;;;15.80;99.90;;;;;;5007275;28;20118;-28
2022/08/30 00:39:59;;;;;;;5.70;4.97;;;15.70;99.90;;;;;;5007605;28;20468;-30
2022/08/30 00:42:25;;;;;;;5.70;5.20;;;15.70;99.90;;;;;;5004853;28;20100;-31
2022/08/30 00:44:51;;;;;;;11.15;5.68;;;15.70;99.90;;;;;;5005891;28;20038;-31
2022/08/30 00:47:18;;;;;;;6.85;6.25;;;15.60;99.90;;;;;;5004726;28;20100;-31
2022/08/30 00:49:50;;;;;;;6.65;5.90;;;15.60;99.90;;;;;;4999998;28;20049;-31
2022/08/30 00:52:18;;;;;;;6.07;5.47;;;15.60;99.90;;;;;;4998512;28;20045;-31
2022/08/30 00:54:45;;;;;;;7.60;6.35;;;15.60;99.90;;;;;;5002854;28;20049;-31
2022/08/30 00:57:13;;;;;;;6.45;5.45;;;15.50;99.90;;;;;;5005282;28;20077;-31
2022/08/30 00:59:43;;;;;;;7.05;5.32;;;15.50;99.90;;;;;;4998284;28;20049;-31
2022/08/30 01:02:09;;;;;;;7.10;5.97;;;15.50;99.90;;;;;;4997714;28;20108;-31
2022/08/30 01:04:37;;;;;;;5.43;4.93;;;15.50;99.90;;;;;;5008356;28;20406;-31
2022/08/30 01:07:03;;;;;;;6.25;5.43;;;15.40;99.90;;;;;;4997461;28;20037;-29
2022/08/30 01:09:29;;;;;;;7.22;5.47;;;15.40;99.90;;;;;;5000187;28;20084;-30
2022/08/30 01:11:55;;;;;;;6.53;5.82;;;15.40;99.90;;;;;;5001357;28;20073;-28
2022/08/30 01:14:21;;;;;;;7.60;5.97;;;15.40;99.90;;;;;;5005997;28;20391;-28
2022/08/30 01:16:49;;;;;;;7.97;6.80;;;15.30;99.90;;;;;;4997043;28;20034;-31
2022/08/30 01:19:35;;;;;;;8.23;5.70;;;15.30;99.90;;;;;;5005560;28;20034;-30
2022/08/30 01:22:42;;;;;;;6.85;6.18;;;15.20;99.90;;;;;;5005698;28;20042;-31
2022/08/30 01:25:10;;;;;;;6.35;5.70;;;15.20;99.90;;;;;;5020126;28;20646;-28
2022/08/30 01:27:49;;;;;;;7.93;5.97;;;15.20;99.90;;;;;;5019815;28;20038;-28
2022/08/30 01:30:15;;;;;;;7.13;6.05;;;15.20;99.90;;;;;;5004798;28;20096;-28
2022/08/30 01:32:44;;;;;;;6.82;6.22;;;15.10;99.90;;;;;;5002256;28;20490;-31
2022/08/30 01:35:12;;;;;;;8.27;6.68;;;15.10;99.90;;;;;;5004962;28;20038;-31
2022/08/30 01:37:38;;;;;;;7.85;6.93;;;15.00;99.90;;;;;;5009387;28;20033;-31
2022/08/30 01:40:05;;;;;;;7.95;6.75;;;15.00;99.90;;;;;;5008528;28;20076;-31
2022/08/30 01:42:31;;;;;;;7.93;6.07;;;15.00;99.90;;;;;;4997811;28;20037;-31
2022/08/30 01:44:57;;;;;;;6.95;5.80;;;15.00;99.90;;;;;;5009464;28;20071;-31
2022/08/30 01:47:23;;;;;;;8.35;7.57;;;15.00;99.90;;;;;;5010131;28;20120;-31
2022/08/30 01:49:49;;;;;;;8.93;6.82;;;14.90;99.90;;;;;;5003727;28;20042;-31
2022/08/30 01:52:16;;;;;;;7.78;7.07;;;14.90;99.90;;;;;;4997036;28;20038;-30
2022/08/30 01:54:44;;;;;;;8.20;7.40;;;14.90;99.90;;;;;;5005292;28;20088;-30
2022/08/30 01:57:12;;;;;;;9.60;8.38;;;14.90;99.90;;;;;;4988548;28;20048;-31
2022/08/30 01:59:41;;;;;;;7.50;6.80;;;14.90;99.90;;;;;;4986673;28;20052;-31
2022/08/30 02:02:07;;;;;;;7.38;6.75;;;14.90;99.90;;;;;;4998299;28;20411;-31
2022/08/30 02:04:35;;;;;;;8.82;7.80;;;14.90;99.90;;;;;;4997740;28;20077;-30
2022/08/30 02:07:02;;;;;;;8.00;7.20;;;14.80;99.90;;;;;;5000883;28;20046;-30
2022/08/30 02:09:28;;;;;;;7.75;7.05;;;14.90;99.90;;;;;;4999208;28;20525;-31
2022/08/30 02:11:54;;;;;;;6.53;5.88;;;14.80;99.90;;;;;;5003458;28;20479;-30
2022/08/30 02:14:20;;;;;;;7.75;6.93;;;14.80;99.90;;;;;;4988043;28;20049;-31
2022/08/30 02:16:47;;;;;;;8.38;7.60;;;14.80;99.90;;;;;;5004310;28;20038;-31
2022/08/30 02:19:13;;;;;;;8.43;7.68;;;14.80;99.90;;;;;;5005842;28;20495;-30
2022/08/30 02:21:39;;;;;;;8.52;6.97;;;14.70;99.90;;;;;;4983970;28;20510;-31
2022/08/30 02:24:05;;;;;;;9.48;7.50;;;14.70;99.90;;;;;;5000758;28;20033;-31
2022/08/30 02:26:31;;;;;;;8.65;7.85;;;14.70;99.90;;;;;;5004136;28;20052;-30
2022/08/30 02:28:57;;;;;;;8.75;7.95;;;14.70;99.90;;;;;;5000914;28;20116;-30
2022/08/30 02:31:23;;;;;;;9.20;8.30;;;14.60;99.90;;;;;;4995581;28;20120;-31
2022/08/30 02:33:51;;;;;;;9.00;8.10;;;14.60;99.90;;;;;;5003315;28;20034;-30
2022/08/30 02:36:18;;;;;;;8.38;7.57;;;14.50;99.90;;;;;;5007870;28;20087;-30
2022/08/30 02:38:44;;;;;;;9.45;8.45;;;14.50;99.90;;;;;;5010911;28;20112;-30
2022/08/30 02:41:09;;;;;;;8.82;8.05;;;14.40;99.90;;;;;;5006890;28;20559;-31
2022/08/30 02:43:35;;;;;;;9.55;8.65;;;14.40;99.90;;;;;;4987776;28;20304;-30
2022/08/30 02:46:01;;;;;;;8.85;8.02;;;14.40;99.90;;;;;;5003934;28;20074;-31
2022/08/30 02:48:26;;;;;;;8.32;7.53;;;14.40;99.90;;;;;;5006023;28;20042;-31
2022/08/30 02:50:52;;;;;;;9.18;8.35;;;14.30;99.90;;;;;;5000356;28;20030;-30
2022/08/30 02:53:19;;;;;;;8.13;7.43;;;14.30;99.90;;;;;;4997442;28;20064;-30
2022/08/30 02:55:47;;;;;;;8.43;7.65;;;14.20;99.90;;;;;;5003965;28;20072;-30
2022/08/30 02:58:13;;;;;;;9.65;7.95;;;14.20;99.90;;;;;;5001456;28;20468;-30
2022/08/30 03:00:40;;;;;;;8.05;7.25;;;14.10;99.90;;;;;;5000948;28;20469;-31
2022/08/30 03:03:07;;;;;;;7.88;7.25;;;14.10;99.90;;;;;;4997402;28;20052;-30
2022/08/30 03:05:34;;;;;;;8.23;7.47;;;14.00;99.90;;;;;;5004494;28;20034;-32
2022/08/30 03:08:00;;;;;;;8.82;8.02;;;14.00;99.90;;;;;;4995557;28;20042;-28
2022/08/30 03:10:27;;;;;;;8.65;7.75;;;14.00;99.90;;;;;;5003618;28;20073;-27
2022/08/30 03:12:54;;;;;;;8.90;8.02;;;13.90;99.90;;;;;;4991617;28;20061;-28
2022/08/30 03:15:24;;;;;;;9.15;7.72;;;13.80;99.90;;;;;;5004890;28;20034;-28
2022/08/30 03:17:51;;;;;;;10.32;9.32;;;13.80;99.90;;;;;;5000956;28;20127;-28
2022/08/30 03:20:17;;;;;;;8.75;7.97;;;13.80;99.90;;;;;;4994707;28;20026;-28
2022/08/30 03:22:43;;;;;;;9.25;8.20;;;13.70;99.90;;;;;;4999713;28;20034;-28
2022/08/30 03:25:09;;;;;;;9.45;8.45;;;13.70;99.90;;;;;;4994501;28;20487;-29
2022/08/30 03:27:35;;;;;;;9.50;8.70;;;13.60;99.90;;;;;;4997127;28;20037;-28
2022/08/30 03:30:01;;;;;;;9.82;8.82;;;13.60;99.90;;;;;;4999928;28;20053;-28
2022/08/30 03:32:27;;;;;;;9.30;8.50;;;13.60;99.90;;;;;;4995028;28;20411;-28
2022/08/30 03:34:52;;;;;;;11.95;10.00;;;13.50;99.90;;;;;;4997774;28;20077;-28
2022/08/30 03:37:19;;;;;;;9.57;8.63;;;13.50;99.90;;;;;;4993405;28;20443;-28
2022/08/30 03:39:45;;;;;;;11.25;10.10;;;13.50;99.90;;;;;;4982955;28;20491;-28
2022/08/30 03:42:11;;;;;;;11.00;9.88;;;13.50;99.90;;;;;;4984418;28;20042;-28
2022/08/30 03:44:38;;;;;;;11.10;10.00;;;13.50;99.90;;;;;;4985102;28;20034;-28
2022/08/30 03:47:04;;;;;;;10.50;9.35;;;13.50;99.90;;;;;;5009736;28;20041;-28
2022/08/30 03:49:30;;;;;;;10.25;9.30;;;13.40;99.90;;;;;;5000746;28;20073;-30
2022/08/30 03:51:56;;;;;;;10.40;9.27;;;13.40;99.90;;;;;;5000855;28;20565;-28
2022/08/30 03:54:22;;;;;;;11.05;9.93;;;13.30;99.90;;;;;;4995230;28;20095;-31
2022/08/30 03:56:48;;;;;;;10.00;9.10;;;13.30;99.90;;;;;;4994493;28;20093;-29
2022/08/30 03:59:13;;;;;;;10.73;9.63;;;13.30;99.90;;;;;;5003040;28;20108;-29
2022/08/30 04:01:40;;;;;;;11.80;10.27;;;13.30;99.90;;;;;;4994186;28;20037;-29
2022/08/30 04:04:07;;;;;;;12.70;11.13;;;13.20;99.90;;;;;;4993502;28;20073;-29
2022/08/30 04:06:33;;;;;;;11.50;10.50;;;13.20;99.90;;;;;;5001458;28;20466;-29
2022/08/30 04:08:59;;;;;;;14.90;11.80;;;13.20;99.90;;;;;;5003358;28;20109;-29
2022/08/30 04:11:25;;;;;;;11.30;10.13;;;13.20;99.90;;;;;;5001406;28;20519;-29
2022/08/30 04:13:52;;;;;;;12.18;10.95;;;13.10;99.90;;;;;;5005201;28;20041;-29
2022/08/30 04:16:21;;;;;;;13.57;11.20;;;13.10;99.90;;;;;;4997627;28;20061;-29
2022/08/30 04:18:47;;;;;;;12.55;11.35;;;13.10;99.90;;;;;;4999497;28;20414;-29
2022/08/30 04:21:14;;;;;;;11.98;10.88;;;13.10;99.90;;;;;;4997441;28;20037;-29
2022/08/30 04:23:40;;;;;;;12.48;11.27;;;13.00;99.90;;;;;;4994705;28;20046;-29
2022/08/30 04:26:08;;;;;;;13.73;12.23;;;13.00;99.90;;;;;;4994390;28;20037;-29
2022/08/30 04:28:34;;;;;;;16.88;12.63;;;13.00;99.90;;;;;;5005700;28;20120;-29
2022/08/30 04:31:07;;;;;;;13.18;11.82;;;13.00;99.90;;;;;;5008660;28;20037;-29
2022/08/30 04:33:34;;;;;;;16.58;13.35;;;12.90;99.90;;;;;;4986108;28;20519;-29
2022/08/30 04:36:03;;;;;;;14.88;12.60;;;12.90;99.90;;;;;;4994019;28;20403;-29
2022/08/30 04:38:30;;;;;;;13.98;12.63;;;12.90;99.90;;;;;;4997455;28;20102;-29
2022/08/30 04:40:55;;;;;;;12.27;11.05;;;12.90;99.90;;;;;;4999256;28;20034;-29
2022/08/30 04:43:24;;;;;;;14.27;12.27;;;12.90;99.90;;;;;;4996800;28;20575;-29
2022/08/30 04:45:51;;;;;;;13.05;11.75;;;12.80;99.90;;;;;;4999164;28;20072;-29
2022/08/30 04:48:17;;;;;;;12.70;11.50;;;12.80;99.90;;;;;;5002161;28;20042;-29
2022/08/30 04:50:43;;;;;;;12.80;11.50;;;12.80;99.90;;;;;;5001033;28;20041;-29
2022/08/30 04:53:09;;;;;;;13.90;12.57;;;12.80;99.90;;;;;;4997652;28;20061;-29
2022/08/30 04:55:34;;;;;;;13.75;12.32;;;12.80;99.90;;;;;;5003310;28;20037;-29
2022/08/30 04:58:00;;;;;;;12.27;11.07;;;12.80;99.90;;;;;;4993693;28;20037;-28
2022/08/30 05:00:26;;;;;;;13.15;11.90;;;12.70;99.90;;;;;;5002160;28;20053;-29
2022/08/30 05:02:52;;;;;;;12.80;11.45;;;12.70;99.90;;;;;;5003546;28;20044;-29
2022/08/30 05:08:03;;;;;;;14.25;12.85;;;12.70;99.90;;;;;;5010153;28;20046;-29
2022/08/30 05:10:29;;;;;;;14.20;12.73;;;12.70;99.90;;;;;;5001744;28;20073;-29
2022/08/30 05:12:55;;;;;;;14.15;11.98;;;12.70;99.90;;;;;;4991842;28;20077;-28
2022/08/30 05:15:21;;;;;;;12.70;11.57;;;12.70;99.90;;;;;;4989441;28;20146;-29
2022/08/30 05:17:47;;;;;;;14.50;13.05;;;12.60;99.90;;;;;;4994641;28;20030;-29
2022/08/30 05:20:13;;;;;;;13.50;12.27;;;12.60;99.90;;;;;;4993461;28;20384;-29
2022/08/30 05:22:48;;;;;;;15.80;13.98;;;12.60;99.90;;;;;;4987712;28;20041;-29
2022/08/30 05:25:25;;;;;;;13.65;12.35;;;12.60;99.90;;;;;;4994996;28;20403;-29
2022/08/30 05:27:51;;;;;;;15.02;13.38;;;12.70;99.90;;;;;;4994099;28;20042;-29
2022/08/30 05:30:18;;;;;;;14.27;12.77;;;12.70;99.90;;;;;;4984051;28;20038;-30
2022/08/30 05:32:44;;;;;;;13.98;12.35;;;12.60;99.90;;;;;;4997307;28;20049;-29
2022/08/30 05:35:12;;;;;;;14.40;12.55;;;12.70;99.90;;;;;;5001985;28;20080;-28
2022/08/30 05:37:39;;;;;;;15.02;12.75;;;12.70;99.90;;;;;;5009201;28;20439;-29
2022/08/30 05:40:07;;;;;;;15.98;13.45;;;12.70;99.90;;;;;;5013830;28;20037;-29
2022/08/30 05:42:34;;;;;;;15.57;13.63;;;12.70;99.90;;;;;;4995728;28;20458;-30
2022/08/30 05:45:01;;;;;;;15.90;14.30;;;12.80;99.90;;;;;;5009151;28;20087;-29
2022/08/30 05:47:27;;;;;;;15.45;13.50;;;12.80;99.90;;;;;;5015640;28;20479;-29
2022/08/30 05:49:53;;;;;;;14.98;13.48;;;12.80;99.90;;;;;;4996512;28;20183;-29
2022/08/30 05:52:18;;;;;;;15.90;14.25;;;12.90;99.90;;;;;;4980768;28;20045;-29
2022/08/30 05:54:45;;;;;;;15.38;13.88;;;12.90;99.90;;;;;;4993144;28;20509;-28
2022/08/30 05:57:11;;;;;;;16.52;14.95;;;13.00;99.90;;;;;;4989019;28;20403;-28
2022/08/30 05:59:37;;;;;;;14.82;13.23;;;13.00;99.90;;;;;;5004937;28;20391;-29
2022/08/30 06:02:04;;;;;;;14.88;13.25;;;13.10;99.90;;;;;;5010082;28;20045;-28
2022/08/30 06:04:30;;;;;;;14.25;12.85;;;13.10;99.90;;;;;;5005428;28;20046;-29
2022/08/30 06:06:56;;;;;;;14.60;13.07;;;13.20;99.90;;;;;;5003046;28;20119;-28
2022/08/30 06:09:22;;;;;;;13.32;12.10;;;13.20;99.90;;;;;;5004702;28;20484;-29
2022/08/30 06:11:47;;;;;;;15.02;13.52;;;13.20;99.90;;;;;;5001466;28;20037;-29
2022/08/30 06:14:14;;;;;;;13.98;12.55;;;13.30;99.90;;;;;;4998968;28;20026;-28
2022/08/30 06:16:42;;;;;;;15.35;13.75;;;13.30;99.90;;;;;;4998433;28;20029;-28
2022/08/30 06:19:09;;;;;;;15.18;13.60;;;13.40;99.90;;;;;;4996445;28;20423;-29
2022/08/30 06:21:36;;;;;;;14.98;12.27;;;13.40;99.90;;;;;;5003735;28;20438;-29
2022/08/30 06:24:04;;;;;;;13.68;12.05;;;13.50;99.90;;;;;;4996524;28;20402;-29
2022/08/30 06:26:30;;;;;;;13.27;11.98;;;13.50;99.90;;;;;;4992603;28;20038;-29
2022/08/30 06:28:57;;;;;;;13.85;12.23;;;13.50;99.90;;;;;;4991927;28;20038;-29
2022/08/30 06:31:24;;;;;;;11.43;10.25;;;13.60;99.90;;;;;;5005908;28;20415;-30
2022/08/30 06:33:50;;;;;;;14.27;11.90;;;13.70;99.90;;;;;;5007268;28;20112;-29
2022/08/30 06:36:19;;;;;;;12.65;11.35;;;13.70;99.90;;;;;;5007035;28;20030;-29
2022/08/30 06:38:46;;;;;;;11.80;10.65;;;13.80;99.90;;;;;;5002455;28;20040;-30
2022/08/30 06:41:17;;;;;;;11.30;10.10;;;13.90;99.90;;;;;;4996391;28;20041;-29
2022/08/30 06:43:46;;;;;;;14.25;10.85;;;13.90;99.90;;;;;;5008831;28;20041;-29
2022/08/30 06:46:15;;;;;;;10.48;9.40;;;14.00;99.90;;;;;;4995997;28;20549;-29
2022/08/30 06:48:40;;;;;;;10.85;9.50;;;14.00;99.90;;;;;;5001113;28;20038;-29
2022/08/30 06:51:07;;;;;;;11.60;8.50;;;14.10;99.90;;;;;;5007625;28;20044;-30
2022/08/30 06:53:34;;;;;;;15.20;9.05;;;14.20;99.90;;;;;;5003776;28;20042;-29
2022/08/30 06:56:02;;;;;;;10.43;7.78;;;14.20;99.90;;;;;;5018575;28;20048;-30
2022/08/30 06:58:29;;;;;;;8.98;7.85;;;14.30;99.90;;;;;;5003587;28;20364;-29
2022/08/30 07:00:55;;;;;;;8.25;7.38;;;14.30;99.90;;;;;;4995928;28;20443;-29
2022/08/30 07:03:22;;;;;;;8.73;7.28;;;14.40;99.90;;;;;;5000648;28;20130;-30
2022/08/30 07:05:48;;;;;;;7.57;6.75;;;14.50;99.90;;;;;;5008452;28;20037;-29
2022/08/30 07:08:14;;;;;;;7.00;6.30;;;14.60;99.90;;;;;;4997299;28;20045;-29
2022/08/30 07:10:40;;;;;;;7.40;5.88;;;14.70;99.90;;;;;;5002595;28;20506;-30
2022/08/30 07:13:07;;;;;;;7.75;6.35;;;14.80;99.90;;;;;;5002183;28;20406;-29
2022/08/30 07:15:34;;;;;;;9.38;6.38;;;14.80;99.90;;;;;;4997626;28;20029;-29
2022/08/30 07:20:43;;;;;;;8.45;5.18;;;14.90;99.90;;;;;;5012254;28;20056;-29
2022/08/30 07:23:10;;;;;;;7.55;4.80;;;15.00;99.90;;;;;;4980405;28;20045;-29
2022/08/30 07:25:38;;;;;;;5.57;4.50;;;15.00;99.90;;;;;;4994154;28;20087;-30
2022/08/30 07:28:05;;;;;;;5.63;4.05;;;15.20;99.90;;;;;;4997123;28;20033;-30
2022/08/30 07:30:33;;;;;;;4.10;3.55;;;15.20;99.90;;;;;;4995451;28;20038;-30
2022/08/30 07:32:59;;;;;;;4.15;3.75;;;15.40;99.90;;;;;;4993754;28;20121;-30
2022/08/30 07:35:25;;;;;;;4.03;3.60;;;15.50;99.90;;;;;;4996863;28;20045;-31
2022/08/30 07:37:51;;;;;;;3.78;3.38;;;15.60;99.90;;;;;;4974509;28;20037;-31
2022/08/30 07:40:19;;;;;;;4.05;2.92;;;15.80;99.90;;;;;;4996772;28;20044;-29
2022/08/30 07:42:46;;;;;;;4.88;2.83;;;15.90;99.90;;;;;;4991633;28;20099;-30
2022/08/30 07:45:12;;;;;;;4.38;2.47;;;16.10;99.90;;;;;;4998799;28;20041;-30
2022/08/30 07:47:37;;;;;;;4.53;2.83;;;16.40;99.90;;;;;;5005022;28;20041;-30
2022/08/30 07:50:04;;;;;;;3.47;2.55;;;16.60;99.90;;;;;;5001236;28;20091;-32
2022/08/30 07:52:30;;;;;;;3.42;2.03;;;16.90;99.90;;;;;;4990292;28;20080;-36
2022/08/30 07:54:57;;;;;;;2.47;2.15;;;17.20;99.90;;;;;;4987269;28;20155;-32
2022/08/30 07:57:24;;;;;;;3.45;2.17;;;17.40;99.90;;;;;;4994178;28;20073;-31
2022/08/30 07:59:51;;;;;;;3.97;1.98;;;17.70;99.90;;;;;;4984690;28;20039;-32
2022/08/30 08:02:18;;;;;;;2.70;2.00;;;18.00;99.90;;;;;;4992689;28;20084;-33
2022/08/30 08:04:44;;;;;;;3.70;1.95;;;18.30;99.90;;;;;;4997752;28;20038;-31
2022/08/30 08:07:11;;;;;;;5.00;2.20;;;18.60;99.90;;;;;;5005521;28;20118;-31
2022/08/30 08:09:37;;;;;;;2.00;1.73;;;18.80;99.90;;;;;;4996226;28;20041;-33
2022/08/30 08:12:05;;;;;;;3.42;1.83;;;19.00;99.90;;;;;;5004702;28;20128;-33
2022/08/30 08:14:32;;;;;;;4.00;1.98;;;19.20;99.90;;;;;;4994061;28;20033;-32
2022/08/30 08:16:58;;;;;;;2.72;2.13;;;19.40;99.90;;;;;;5003203;28;20480;-34
2022/08/30 08:19:24;;;;;;;3.70;2.00;;;19.60;99.90;;;;;;4991094;28;20049;-32
2022/08/30 08:21:55;;;;;;;3.67;2.10;;;19.70;99.90;;;;;;4970689;28;20480;-33
2022/08/30 08:24:22;;;;;;;4.03;1.75;;;19.90;99.90;;;;;;4999007;28;20034;-30
2022/08/30 08:26:48;;;;;;;3.20;1.75;;;20.10;99.90;;;;;;5007619;28;20040;-31
2022/08/30 08:29:14;;;;;;;2.88;1.48;;;20.10;99.90;;;;;;4993912;28;20117;-30
2022/08/30 08:31:40;;;;;;;3.00;1.50;;;20.20;99.90;;;;;;4981860;28;20094;-30
2022/08/30 08:34:06;;;;;;;3.05;1.65;;;20.30;99.90;;;;;;4992420;28;20126;-30
2022/08/30 08:36:34;;;;;;;2.88;1.60;;;20.40;99.90;;;;;;4998391;28;20073;-30
2022/08/30 08:39:01;;;;;;;2.40;1.75;;;20.60;99.90;;;;;;5004490;28;20070;-35
2022/08/30 08:41:52;;;;;;;2.75;1.48;;;20.80;99.90;;;;;;4999651;28;20045;-37
2022/08/30 08:44:21;;;;;;;1.90;1.70;;;20.90;99.90;;;;;;4997095;28;20038;-36
2022/08/30 08:47:05;;;;;;;2.92;1.70;;;21.20;99.90;;;;;;5000277;28;20418;-33
2022/08/30 08:49:34;;;;;;;1.90;1.65;;;21.40;99.90;;;;;;5000595;28;20046;-37
2022/08/30 08:54:52;;;;;;;2.63;1.77;;;21.90;99.90;;;;;;5021559;28;20045;-34
2022/08/30 08:57:18;;;;;;;2.78;1.73;;;22.10;99.90;;;;;;5007890;28;20621;-33
2022/08/30 08:59:44;;;;;;;3.67;1.80;;;22.40;99.90;;;;;;5006068;28;20050;-32
2022/08/30 09:02:32;;;;;;;1.80;1.70;;;22.80;99.90;;;;;;4996297;28;20461;-33
2022/08/30 09:05:01;;;;;;;2.88;2.00;;;23.10;99.90;;;;;;5006763;28;20042;-37
2022/08/30 09:07:32;;;;;;;1.63;1.50;;;23.20;99.90;;;;;;4981428;28;20042;-34
2022/08/30 09:09:59;;;;;;;3.83;1.50;;;23.30;99.90;;;;;;5003717;28;20095;-34
2022/08/30 09:12:26;;;;;;;1.40;1.30;;;23.40;99.90;;;;;;5006946;28;20073;-32
2022/08/30 09:15:13;;;;;;;2.88;1.50;;;23.40;99.90;;;;;;5002416;28;20034;-32
2022/08/30 09:18:00;;;;;;;2.45;1.50;;;23.50;99.40;;;;;;5008466;28;20033;-34
2022/08/30 09:20:37;;;;;;;3.65;1.60;;;23.80;97.30;;;;;;4994768;28;20037;-33
2022/08/30 09:23:26;;;;;;;3.95;1.70;;;24.00;99.90;;;;;;5008227;28;20218;-32
2022/08/30 09:25:56;;;;;;;3.58;1.60;;;24.10;89.80;;;;;;5005166;28;20048;-33
2022/08/30 09:28:42;;;;;;;2.08;1.52;;;24.40;95.80;;;;;;5006345;28;20037;-33
2022/08/30 09:31:18;;;;;;;3.53;1.55;;;24.40;95.40;;;;;;4996716;28;20566;-33
2022/08/30 09:34:05;;;;;;;2.28;1.50;;;24.50;92.20;;;;;;4999048;28;20038;-35
2022/08/30 09:36:39;;;;;;;3.83;1.70;;;24.40;79.00;;;;;;5008257;28;20415;-32
2022/08/30 09:39:13;;;;;;;2.60;2.10;;;24.40;89.80;;;;;;5005267;28;20038;-33
2022/08/30 09:41:43;;;;;;;2.72;1.65;;;24.50;88.70;;;;;;4999466;28;20092;-34
2022/08/30 09:44:13;;;;;;;1.73;1.20;;;24.50;89.20;;;;;;5020770;28;20045;-33
2022/08/30 09:47:00;;;;;;;3.03;1.30;;;24.70;84.40;;;;;;5001367;28;20034;-34
2022/08/30 09:49:38;;;;;;;2.42;1.35;;;25.00;72.60;;;;;;4997117;28;20506;-35
2022/08/30 09:52:22;;;;;;;1.40;1.23;;;25.30;78.90;;;;;;4984250;28;20042;-35
2022/08/30 09:55:09;;;;;;;2.17;1.25;;;25.30;63.10;;;;;;5001835;28;20029;-34
2022/08/30 09:57:45;;;;;;;2.90;1.52;;;25.30;69.30;;;;;;4985234;28;20038;-34
2022/08/30 10:00:17;;;;;;;2.50;1.42;;;25.40;67.60;;;;;;5009705;28;20034;-34
2022/08/30 10:03:07;;;;;;;2.22;1.20;;;25.50;68.10;;;;;;4995154;28;20129;-34
2022/08/30 10:05:41;;;;;;;1.75;1.27;;;25.50;64.20;;;;;;4999145;28;20038;-34
2022/08/30 10:08:49;;;;;;;1.55;1.30;;;25.90;72.50;;;;;;5000529;28;20096;-34
2022/08/30 10:11:27;;;;;;;2.80;1.30;;;26.40;66.30;;;;;;4992779;28;20117;-35
2022/08/30 10:14:05;;;;;;;3.10;1.35;;;26.40;61.70;;;;;;4991830;28;20045;-34
2022/08/30 10:16:44;;;;;;;2.78;1.52;;;26.70;60.10;;;;;;5003333;28;20033;-34
2022/08/30 10:19:31;;;;;;;2.67;1.40;;;26.80;63.40;;;;;;4991207;28;20026;-32
2022/08/30 10:22:35;;;;;;;1.25;1.15;;;27.00;63.20;;;;;;4995913;28;20458;-33
2022/08/30 10:25:20;;;;;;;1.90;1.25;;;26.90;53.50;;;;;;5017831;28;20434;-33
2022/08/30 10:27:59;;;;;;;2.83;1.10;;;27.30;56.80;;;;;;5000147;28;20497;-32
2022/08/30 10:30:28;;;;;;;2.58;1.10;;;27.30;57.10;;;;;;4996776;28;20037;-33
2022/08/30 10:33:07;;;;;;;3.40;1.33;;;27.30;55.40;;;;;;4996417;28;20038;-34
2022/08/30 10:35:42;;;;;;;2.97;1.50;;;27.20;52.90;;;;;;4995808;28;20033;-31
2022/08/30 10:38:24;;;;;;;1.77;1.20;;;27.10;51.30;;;;;;4978809;28;20415;-30
2022/08/30 10:41:17;;;;;;;1.63;1.10;;;26.80;51.60;;;;;;5007127;28;20054;-32
2022/08/30 10:43:42;;;;;;;2.08;1.10;;;26.80;53.90;;;;;;5007421;28;20049;-33
2022/08/30 10:46:17;;;;;;;1.92;0.93;;;26.90;54.30;;;;;;4995817;28;20038;-36
2022/08/30 10:48:45;;;;;;;1.65;1.20;;;27.20;51.30;;;;;;4997469;28;20037;-32
2022/08/30 10:51:23;;;;;;;1.80;1.30;;;27.10;51.00;;;;;;4995709;28;20041;-33
2022/08/30 10:53:58;;;;;;;1.50;1.10;;;27.50;48.50;;;;;;4992989;28;20117;-35
2022/08/30 10:56:28;;;;;;;1.30;1.00;;;27.50;48.00;;;;;;4995055;28;20045;-32
2022/08/30 10:58:57;;;;;;;2.15;1.33;;;27.80;49.70;;;;;;4994718;28;20125;-33
2022/08/30 11:01:51;;;;;;;2.60;1.08;;;27.90;50.90;;;;;;4996600;28;20038;-32
2022/08/30 11:04:32;;;;;;;1.23;1.00;;;28.00;48.10;;;;;;4996557;28;20042;-33
2022/08/30 11:07:22;;;;;;;2.97;1.20;;;28.10;50.50;;;;;;5001489;28;20492;-35
2022/08/30 11:09:59;;;;;;;2.50;1.30;;;28.20;46.70;;;;;;4979748;28;20041;-33
2022/08/30 11:12:47;;;;;;;2.50;1.02;;;28.20;44.90;;;;;;4989630;28;20061;-35
2022/08/30 11:15:18;;;;;;;2.50;1.20;;;28.50;47.70;;;;;;5005882;28;20038;-36
2022/08/30 11:18:08;;;;;;;2.58;1.40;;;28.80;48.40;;;;;;4993607;28;20038;-34
2022/08/30 11:20:48;;;;;;;2.00;1.08;;;29.10;46.40;;;;;;4988033;28;20030;-33
2022/08/30 11:23:17;;;;;;;2.33;1.15;;;28.70;45.50;;;;;;4988104;28;20041;-33
2022/08/30 11:25:48;;;;;;;2.05;1.20;;;28.50;46.50;;;;;;4991661;28;20041;-33
2022/08/30 11:28:34;;;;;;;1.63;1.20;;;28.60;46.10;;;;;;4992123;28;20073;-34
2022/08/30 11:31:03;;;;;;;2.45;1.00;;;28.70;45.90;;;;;;5002783;28;20157;-33
2022/08/30 11:33:43;;;;;;;1.70;1.25;;;28.80;44.90;;;;;;4994569;28;20045;-32
2022/08/30 11:36:39;;;;;;;1.42;1.13;;;29.20;44.50;;;;;;4995058;28;20518;-31
2022/08/30 11:39:25;;;;;;;2.42;1.38;;;29.20;45.10;;;;;;5010475;28;20608;-33
2022/08/30 11:42:10;;;;;;;1.45;1.35;;;29.00;44.70;;;;;;4987432;28;20034;-34
2022/08/30 11:44:36;;;;;;;3.90;1.55;;;29.30;44.40;;;;;;4994668;28;20209;-33
2022/08/30 11:47:39;;;;;;;2.08;1.10;;;29.50;44.50;;;;;;4999630;28;20104;-35
2022/08/30 11:50:33;;;;;;;1.52;1.02;;;29.60;44.60;;;;;;4979541;28;20045;-34
2022/08/30 11:53:05;;;;;;;2.50;1.10;;;29.60;41.30;;;;;;5001425;28;20060;-33
2022/08/30 11:55:43;;;;;;;1.10;0.95;;;29.70;44.10;;;;;;4987296;28;20044;-31
2022/08/30 11:58:31;;;;;;;1.52;1.10;;;29.90;43.10;;;;;;4997758;28;20048;-33
2022/08/30 12:01:24;;;;;;;1.70;1.00;;;30.30;43.70;;;;;;4997721;28;20048;-32
2022/08/30 12:04:16;;;;;;;1.35;1.08;;;30.80;43.80;;;;;;4999136;28;20097;-33
2022/08/30 12:06:47;;;;;;;1.90;0.98;;;31.10;40.80;;;;;;4992391;28;20398;-32
2022/08/30 12:09:27;;;;;;;2.20;1.10;;;30.90;41.80;;;;;;4992703;28;20037;-32
2022/08/30 12:12:04;;;;;;;1.13;1.00;;;30.80;41.60;;;;;;4989076;28;20042;-34
2022/08/30 12:14:46;;;;;;;1.70;1.08;;;30.90;41.30;;;;;;5024811;28;20546;-36
2022/08/30 12:20:44;;;;;;;2.22;1.00;;;31.30;41.20;;;;;;5001564;28;20049;-33
2022/08/30 12:23:38;;;;;;;1.80;1.30;;;31.40;41.70;;;;;;4992211;28;20034;-34
2022/08/30 12:26:18;;;;;;;3.45;1.02;;;31.70;40.20;;;;;;4953132;28;20057;-32
2022/08/30 12:28:47;;;;;;;0.88;0.80;;;31.80;38.20;;;;;;5017247;28;20123;-33
2022/08/30 12:31:19;;;;;;;2.05;0.95;;;31.80;40.80;;;;;;4999068;28;20041;-34
2022/08/30 12:33:49;;;;;;;0.90;0.80;;;32.20;41.10;;;;;;4998266;28;20042;-34
2022/08/30 12:36:39;;;;;;;3.92;1.20;;;32.50;40.60;;;;;;4998344;28;20034;-32
2022/08/30 12:39:10;;;;;;;2.40;0.80;;;32.80;38.90;;;;;;4997045;28;20480;-36
2022/08/30 12:41:36;;;;;;;1.65;0.95;;;32.60;38.60;;;;;;4984390;28;20041;-33
2022/08/30 12:44:06;;;;;;;1.33;1.00;;;32.10;39.50;;;;;;4997170;28;20124;-33
2022/08/30 12:46:32;;;;;;;1.83;0.90;;;31.70;39.90;;;;;;5000357;28;20071;-33
2022/08/30 12:48:58;;;;;;;1.63;0.82;;;31.40;40.20;;;;;;4997789;28;20134;-32
2022/08/30 12:51:26;;;;;;;1.95;0.80;;;31.20;40.60;;;;;;4987573;28;20113;-33
2022/08/30 12:53:52;;;;;;;2.15;0.88;;;31.10;40.50;;;;;;4993375;28;20042;-34
2022/08/30 12:56:18;;;;;;;1.25;0.98;;;31.40;40.90;;;;;;4993920;28;20045;-33
2022/08/30 12:58:48;;;;;;;2.92;1.25;;;31.70;41.00;;;;;;5011566;28;20038;-33
2022/08/30 13:01:28;;;;;;;1.52;1.05;;;31.90;38.90;;;;;;5002798;28;20044;-34
2022/08/30 13:04:12;;;;;;;1.55;0.90;;;31.90;38.70;;;;;;4994561;28;20438;-35
2022/08/30 13:06:55;;;;;;;1.85;0.98;;;32.20;39.20;;;;;;5002625;28;20217;-36
2022/08/30 13:09:41;;;;;;;;;;;32.50;38.60;;;;;;4994583;28;20048;-33
2022/08/30 13:12:19;;;;;;;1.60;0.63;;;32.30;38.10;;;;;;4996070;28;19929;-32
2022/08/30 13:14:45;;;;;;;1.83;0.80;;;31.40;38.70;;;;;;4990010;28;20034;-34